Time;durP1;ratioP1;P1;durP2;ratioP2;P2;SDS_P1;SDS_P2;PMS_P1;PMS_P2;Temp;Humidity;BMP_temperature;BMP_pressure;BME280_temperature;BME280_humidity;BME280_pressure;Samples;Min_cycle;Max_cycle;Signal;HPM_P1;HPM_P2
2022/09/29 00:02:53;;;;;;;0.52;0.30;;;;;;;9.77;88.45;97327.84;5094036;28;20241;-52
2022/09/29 00:05:37;;;;;;;0.93;0.20;;;;;;;9.74;89.91;97336.81;5115667;27;20036;-52
2022/09/29 00:08:26;;;;;;;1.70;0.35;;;;;;;9.71;89.53;97339.69;5101755;28;20039;-55
2022/09/29 00:11:13;;;;;;;0.65;0.30;;;;;;;9.74;90.30;97334.19;5096761;28;20078;-57
2022/09/29 00:13:58;;;;;;;1.45;0.30;;;;;;;9.59;91.42;97333.72;5094394;28;20380;-51
2022/09/29 00:16:42;;;;;;;0.80;0.30;;;;;;;9.56;91.84;97337.47;5098653;28;20038;-53
2022/09/29 00:19:27;;;;;;;0.63;0.30;;;;;;;9.54;93.05;97335.91;5099866;28;20610;-56
2022/09/29 00:22:12;;;;;;;1.23;0.20;;;;;;;9.52;92.82;97340.44;5102273;28;20039;-50
2022/09/29 00:24:57;;;;;;;1.42;0.30;;;;;;;9.46;94.07;97347.88;5092948;28;20514;-49
2022/09/29 00:27:42;;;;;;;1.27;0.40;;;;;;;9.45;94.26;97345.41;5105405;27;20494;-50
2022/09/29 00:30:27;;;;;;;2.20;0.40;;;;;;;9.40;96.16;97350.19;5096822;28;20048;-52
2022/09/29 00:33:11;;;;;;;1.00;0.40;;;;;;;9.30;97.61;97352.78;5101233;28;20104;-53
2022/09/29 00:36:05;;;;;;;0.93;0.50;;;;;;;9.28;98.31;97346.84;5091962;28;20052;-51
2022/09/29 00:38:53;;;;;;;0.40;0.25;;;;;;;9.34;98.19;97339.31;5094498;28;20475;-52
2022/09/29 00:41:40;;;;;;;1.10;0.47;;;;;;;9.29;98.55;97349.31;5091302;28;20056;-49
2022/09/29 00:44:24;;;;;;;0.77;0.40;;;;;;;9.19;99.59;97344.06;5097497;28;20044;-52
2022/09/29 00:47:12;;;;;;;0.57;0.50;;;;;;;9.16;99.72;97359.16;5090990;28;20538;-55
2022/09/29 00:50:03;;;;;;;2.50;0.50;;;;;;;9.16;99.47;97356.56;5106317;28;20502;-53
2022/09/29 00:52:57;;;;;;;0.90;0.40;;;;;;;9.17;99.41;97353.81;5090430;28;20119;-50
2022/09/29 00:55:49;;;;;;;1.25;0.55;;;;;;;9.18;99.44;97352.03;5111303;27;20044;-53
2022/09/29 00:58:36;;;;;;;0.60;0.40;;;;;;;9.16;100.00;97357.38;5089721;28;20481;-51
2022/09/29 01:01:22;;;;;;;1.30;0.35;;;;;;;9.16;100.00;97357.38;5106974;28;20082;-50
2022/09/29 01:04:15;;;;;;;0.80;0.40;;;;;;;9.17;100.00;97361.66;5095916;28;20059;-50
2022/09/29 01:06:59;;;;;;;0.77;0.32;;;;;;;9.16;100.00;97365.22;5113733;27;20035;-49
2022/09/29 01:09:45;;;;;;;0.93;0.43;;;;;;;9.09;100.00;97361.50;5103798;28;20130;-52
2022/09/29 01:12:30;;;;;;;0.90;0.38;;;;;;;9.14;100.00;97369.75;5094765;28;20109;-49
2022/09/29 01:15:17;;;;;;;0.73;0.50;;;;;;;9.04;100.00;97372.31;5091417;28;20123;-53
2022/09/29 01:18:01;;;;;;;1.35;0.17;;;;;;;9.06;100.00;97375.63;5071258;28;20028;-47
2022/09/29 01:21:12;;;;;;;1.27;0.50;;;;;;;9.00;100.00;97386.59;5100450;28;20477;-51
2022/09/29 01:24:02;;;;;;;2.28;0.68;;;;;;;9.10;100.00;97373.59;5097998;28;20108;-49
2022/09/29 01:27:05;;;;;;;0.52;0.40;;;;;;;9.37;99.25;97372.19;5090809;28;20092;-47
2022/09/29 01:30:19;;;;;;;1.20;0.40;;;;;;;9.17;99.01;97379.94;5100288;28;20040;-46
2022/09/29 01:33:54;;;;;;;1.55;0.30;;;;;;;9.30;98.04;97389.38;5095493;28;20043;-47
2022/09/29 01:36:54;;;;;;;0.40;0.30;;;;;;;9.34;97.38;97406.41;5043196;28;20052;-49
2022/09/29 01:40:01;;;;;;;0.93;0.40;;;;;;;9.18;98.86;97397.28;5046440;28;20472;-49
2022/09/29 01:43:16;;;;;;;0.70;0.50;;;;;;;9.23;98.53;97391.66;5030602;28;20381;-49
2022/09/29 01:46:09;;;;;;;0.98;0.40;;;;;;;9.08;100.00;97402.47;4928070;29;20082;-50
2022/09/29 01:48:56;;;;;;;0.73;0.40;;;;;;;9.16;100.00;97408.81;4949531;28;20082;-50
2022/09/29 01:51:51;;;;;;;0.40;0.22;;;;;;;9.16;100.00;97400.97;4949656;29;20043;-50
2022/09/29 01:54:59;;;;;;;0.90;0.40;;;;;;;9.29;99.11;97400.75;4948560;28;20047;-47
2022/09/29 01:57:49;;;;;;;0.85;0.50;;;;;;;9.33;98.75;97386.47;4940340;29;20063;-46
2022/09/29 02:01:03;;;;;;;1.85;0.40;;;;;;;9.45;97.71;97382.81;4947099;29;20039;-51
2022/09/29 02:04:03;;;;;;;1.00;0.40;;;;;;;9.39;98.46;97392.97;4948284;28;20042;-48
2022/09/29 02:07:06;;;;;;;1.48;0.55;;;;;;;9.46;98.53;97383.66;4948443;28;20058;-51
2022/09/29 02:09:58;;;;;;;2.08;0.50;;;;;;;9.34;98.93;97394.19;4959248;28;20128;-48
2022/09/29 02:12:43;;;;;;;2.63;0.52;;;;;;;9.22;99.67;97403.91;5012709;28;20042;-51
2022/09/29 02:15:33;;;;;;;1.30;0.50;;;;;;;9.19;99.74;97406.78;5015925;28;20129;-50
2022/09/29 02:18:26;;;;;;;0.50;0.30;;;;;;;9.21;99.90;97404.03;5013807;28;20064;-48
2022/09/29 02:21:10;;;;;;;1.00;0.47;;;;;;;9.27;100.00;97410.53;5011637;28;20037;-54
2022/09/29 02:23:55;;;;;;;0.80;0.40;;;;;;;9.27;99.69;97400.88;5092872;28;20095;-51
2022/09/29 02:26:41;;;;;;;1.83;0.50;;;;;;;9.18;100.00;97402.50;5093762;28;20056;-47
2022/09/29 02:29:26;;;;;;;1.38;0.30;;;;;;;9.19;100.00;97408.56;5089798;28;20070;-49
2022/09/29 02:32:12;;;;;;;0.80;0.30;;;;;;;9.27;100.00;97405.31;5105834;28;20471;-46
2022/09/29 02:34:56;;;;;;;0.52;0.30;;;;;;;9.03;100.00;97412.47;5099235;28;20044;-51
2022/09/29 02:37:53;;;;;;;0.73;0.40;;;;;;;9.20;100.00;97411.06;5110267;28;20135;-50
2022/09/29 02:41:01;;;;;;;1.15;0.50;;;;;;;9.10;100.00;97411.00;5093751;28;20512;-49
2022/09/29 02:44:18;;;;;;;2.47;0.43;;;;;;;9.18;100.00;97415.56;5109713;27;20050;-49
2022/09/29 02:47:32;;;;;;;0.73;0.40;;;;;;;9.17;100.00;97421.75;5089370;28;20048;-49
2022/09/29 02:50:51;;;;;;;0.52;0.30;;;;;;;8.86;100.00;97411.28;5105448;27;20123;-53
2022/09/29 02:54:00;;;;;;;1.13;0.70;;;;;;;8.95;100.00;97401.81;5099743;28;20048;-53
2022/09/29 02:57:14;;;;;;;1.13;0.60;;;;;;;9.27;100.00;97408.72;5102079;28;20058;-52
2022/09/29 03:00:10;;;;;;;0.95;0.50;;;;;;;9.41;100.00;97401.50;5089393;28;20055;-47
2022/09/29 03:02:55;;;;;;;1.15;0.50;;;;;;;9.44;100.00;97409.91;5103507;28;20063;-47
2022/09/29 03:05:40;;;;;;;1.33;0.70;;;;;;;9.42;100.00;97419.66;5095291;28;20114;-48
2022/09/29 03:08:25;;;;;;;2.53;0.95;;;;;;;9.34;100.00;97424.72;5091554;28;20121;-46
2022/09/29 03:11:09;;;;;;;1.17;0.63;;;;;;;9.36;100.00;97420.19;5098200;28;20070;-50
2022/09/29 03:13:54;;;;;;;1.00;0.55;;;;;;;9.51;100.00;97415.44;5090588;28;20491;-49
2022/09/29 03:16:39;;;;;;;1.33;0.47;;;;;;;9.51;100.00;97407.63;5091480;28;20471;-50
2022/09/29 03:19:23;;;;;;;0.80;0.60;;;;;;;9.47;100.00;97409.66;5098111;28;20078;-48
2022/09/29 03:22:08;;;;;;;2.15;0.65;;;;;;;9.42;100.00;97398.75;5092724;28;20040;-51
2022/09/29 03:24:53;;;;;;;0.93;0.52;;;;;;;9.39;100.00;97416.47;5100866;28;20140;-47
2022/09/29 03:27:38;;;;;;;0.85;0.50;;;;;;;9.35;100.00;97414.13;5092684;28;20173;-48
2022/09/29 03:30:23;;;;;;;0.85;0.75;;;;;;;9.22;100.00;97414.34;5089090;28;20064;-47
2022/09/29 03:33:07;;;;;;;1.95;0.70;;;;;;;9.27;100.00;97418.38;5089926;28;20047;-49
2022/09/29 03:35:52;;;;;;;1.23;0.50;;;;;;;9.26;100.00;97416.69;5090766;28;20125;-48
2022/09/29 03:38:37;;;;;;;1.30;0.70;;;;;;;9.40;100.00;97410.31;5092152;28;20391;-48
2022/09/29 03:41:22;;;;;;;0.75;0.50;;;;;;;9.16;100.00;97424.47;5101929;28;20368;-48
2022/09/29 03:44:06;;;;;;;0.60;0.30;;;;;;;9.17;100.00;97428.78;5090976;28;20043;-48
2022/09/29 03:46:51;;;;;;;1.65;0.60;;;;;;;9.07;100.00;97432.16;5102269;28;20131;-50
2022/09/29 03:49:36;;;;;;;3.22;0.50;;;;;;;8.94;100.00;97427.13;5099098;28;20093;-47
2022/09/29 03:52:20;;;;;;;1.35;0.60;;;;;;;8.85;100.00;97427.88;5103304;28;20075;-48
2022/09/29 03:55:06;;;;;;;1.05;0.52;;;;;;;8.90;100.00;97430.09;5101867;28;20036;-47
2022/09/29 03:57:50;;;;;;;1.08;0.60;;;;;;;9.04;100.00;97423.75;5095466;28;20106;-49
2022/09/29 04:00:34;;;;;;;0.65;0.30;;;;;;;8.97;100.00;97423.44;5093761;28;20117;-55
2022/09/29 04:03:19;;;;;;;1.65;0.65;;;;;;;8.96;100.00;97432.22;5092941;28;20032;-48
2022/09/29 04:06:04;;;;;;;0.80;0.50;;;;;;;8.89;100.00;97431.91;5103217;28;20046;-47
2022/09/29 04:08:49;;;;;;;0.77;0.65;;;;;;;8.76;100.00;97426.88;5094272;28;20107;-46
2022/09/29 04:11:33;;;;;;;10.93;0.77;;;;;;;8.64;100.00;97420.88;5101258;28;20039;-51
2022/09/29 04:14:19;;;;;;;1.13;0.60;;;;;;;8.80;100.00;97422.19;5094352;28;20123;-50
2022/09/29 04:17:03;;;;;;;0.90;0.50;;;;;;;8.69;100.00;97421.31;5099874;27;20048;-47
2022/09/29 04:19:48;;;;;;;0.90;0.43;;;;;;;8.77;100.00;97423.28;5101006;27;20527;-51
2022/09/29 04:22:32;;;;;;;1.38;0.47;;;;;;;8.69;100.00;97418.72;5087720;28;20042;-46
2022/09/29 04:25:17;;;;;;;1.10;0.47;;;;;;;8.61;100.00;97421.13;5092713;28;20056;-51
2022/09/29 04:28:02;;;;;;;1.10;0.70;;;;;;;8.56;100.00;97433.72;5112146;27;20097;-50
2022/09/29 04:30:47;;;;;;;0.65;0.40;;;;;;;8.59;100.00;97430.84;5102375;28;20044;-50
2022/09/29 04:33:32;;;;;;;0.70;0.55;;;;;;;8.48;100.00;97429.09;5103417;27;20040;-53
2022/09/29 04:36:17;;;;;;;2.40;0.70;;;;;;;9.30;100.00;97439.03;5099836;28;20131;-53
2022/09/29 04:39:01;;;;;;;1.88;0.73;;;;;;;9.08;100.00;97436.44;5096490;28;20056;-48
2022/09/29 04:41:46;;;;;;;1.42;0.43;;;;;;;8.85;100.00;97441.78;5090169;28;20119;-52
2022/09/29 04:44:31;;;;;;;0.90;0.60;;;;;;;8.95;100.00;97446.22;5097646;28;20383;-50
2022/09/29 04:47:17;;;;;;;1.65;0.52;;;;;;;8.85;100.00;97447.00;5101279;28;20036;-47
2022/09/29 04:50:01;;;;;;;0.80;0.50;;;;;;;8.77;100.00;97449.41;5092061;28;20056;-48
2022/09/29 04:52:46;;;;;;;1.83;0.63;;;;;;;8.76;100.00;97442.53;5095725;28;20040;-49
2022/09/29 04:55:30;;;;;;;0.80;0.52;;;;;;;8.97;100.00;97439.94;5092514;28;20047;-49
2022/09/29 04:58:15;;;;;;;4.45;0.80;;;;;;;8.97;100.00;97431.25;5100893;28;20428;-45
2022/09/29 05:01:08;;;;;;;1.02;0.65;;;;;;;8.79;100.00;97436.22;5097805;28;20040;-54
2022/09/29 05:03:52;;;;;;;0.50;0.35;;;;;;;8.72;100.00;97439.34;5096858;28;20067;-47
2022/09/29 05:06:38;;;;;;;1.02;0.60;;;;;;;8.63;100.00;97429.66;5092008;28;20040;-49
2022/09/29 05:09:23;;;;;;;1.33;0.63;;;;;;;8.74;100.00;97427.00;5094138;28;20419;-46
2022/09/29 05:12:08;;;;;;;1.30;0.80;;;;;;;8.66;100.00;97428.56;5092280;28;20032;-49
2022/09/29 05:14:52;;;;;;;1.10;0.50;;;;;;;8.71;100.00;97424.66;5098464;28;20103;-46
2022/09/29 05:17:37;;;;;;;2.42;0.65;;;;;;;8.92;100.00;97421.22;5093587;28;20075;-50
2022/09/29 05:20:22;;;;;;;1.02;0.60;;;;;;;9.01;100.00;97427.44;5090833;28;20071;-46
2022/09/29 05:23:08;;;;;;;0.88;0.47;;;;;;;8.97;100.00;97415.59;5089015;28;20134;-50
2022/09/29 05:25:53;;;;;;;2.83;0.50;;;;;;;9.06;100.00;97419.19;5094559;28;20088;-49
2022/09/29 05:28:43;;;;;;;0.90;0.60;;;;;;;9.22;100.00;97419.56;5096118;28;20386;-51
2022/09/29 05:31:27;;;;;;;0.77;0.35;;;;;;;9.06;100.00;97416.59;5095263;28;20085;-49
2022/09/29 05:34:12;;;;;;;0.80;0.50;;;;;;;8.87;100.00;97420.75;5090431;28;20044;-51
2022/09/29 05:36:57;;;;;;;0.63;0.40;;;;;;;8.79;100.00;97431.84;5088723;28;20052;-51
2022/09/29 05:39:43;;;;;;;2.75;0.60;;;;;;;8.67;100.00;97436.28;5089417;28;20051;-49
2022/09/29 05:42:28;;;;;;;0.88;0.60;;;;;;;8.47;100.00;97437.91;5090273;28;20028;-50
2022/09/29 05:45:13;;;;;;;1.27;0.57;;;;;;;8.47;100.00;97441.31;5089298;28;20122;-53
2022/09/29 05:47:57;;;;;;;0.50;0.50;;;;;;;8.56;100.00;97452.84;5098244;28;20063;-50
2022/09/29 05:50:42;;;;;;;1.30;0.50;;;;;;;8.79;100.00;97457.94;5097804;28;20066;-51
2022/09/29 05:53:27;;;;;;;1.98;0.40;;;;;;;8.88;100.00;97458.97;5104542;28;20044;-48
2022/09/29 05:56:21;;;;;;;0.73;0.55;;;;;;;8.91;100.00;97461.31;5091395;28;20044;-51
2022/09/29 05:59:06;;;;;;;0.80;0.45;;;;;;;9.07;100.00;97463.53;5099302;28;20430;-49
2022/09/29 06:01:51;;;;;;;0.88;0.60;;;;;;;9.12;100.00;97456.09;5098585;28;20067;-49
2022/09/29 06:04:36;;;;;;;1.38;0.60;;;;;;;9.09;100.00;97445.91;5100784;28;20044;-47
2022/09/29 06:07:20;;;;;;;1.17;0.70;;;;;;;9.03;100.00;97450.81;5095697;28;20054;-49
2022/09/29 06:10:05;;;;;;;1.17;0.50;;;;;;;9.09;100.00;97451.13;5103343;28;20471;-52
2022/09/29 06:12:50;;;;;;;0.90;0.50;;;;;;;9.17;100.00;97468.78;5099345;28;20028;-46
2022/09/29 06:15:36;;;;;;;1.00;0.50;;;;;;;9.38;100.00;97461.88;5099235;28;20042;-51
2022/09/29 06:18:21;;;;;;;1.55;0.70;;;;;;;9.43;100.00;97446.66;5097929;28;20086;-51
2022/09/29 06:21:08;;;;;;;1.08;0.55;;;;;;;9.63;100.00;97446.75;5113759;27;20055;-50
2022/09/29 06:23:54;;;;;;;0.65;0.40;;;;;;;9.59;99.62;97454.00;5092212;28;20091;-48
2022/09/29 06:26:40;;;;;;;0.98;0.50;;;;;;;9.59;100.00;97456.63;5098893;28;20355;-49
2022/09/29 06:29:24;;;;;;;1.35;0.40;;;;;;;9.58;100.00;97461.00;5100230;28;20040;-55
2022/09/29 06:32:09;;;;;;;1.27;0.40;;;;;;;9.68;100.00;97460.22;5097955;28;20063;-51
2022/09/29 06:37:57;;;;;;;5.65;0.77;;;;;;;9.74;98.84;97464.94;5096545;28;20443;-48
2022/09/29 06:40:42;;;;;;;0.65;0.47;;;;;;;9.82;99.76;97466.91;5104756;28;20420;-49
2022/09/29 06:43:26;;;;;;;1.40;0.50;;;;;;;9.91;98.76;97467.88;5103925;28;20113;-50
2022/09/29 06:46:11;;;;;;;2.47;0.55;;;;;;;9.91;98.01;97470.50;5104148;28;20061;-49
2022/09/29 06:48:56;;;;;;;0.95;0.50;;;;;;;10.15;96.94;97459.69;5098559;28;20047;-48
2022/09/29 06:51:42;;;;;;;0.75;0.50;;;;;;;10.06;96.68;97460.50;5096940;28;20040;-49
2022/09/29 06:54:28;;;;;;;1.08;0.60;;;;;;;9.83;96.93;97466.75;5097321;28;20178;-46
2022/09/29 06:57:13;;;;;;;1.45;0.70;;;;;;;9.82;97.21;97465.13;5098362;28;20064;-50
2022/09/29 06:59:57;;;;;;;2.78;0.60;;;;;;;10.34;96.55;97471.16;5104126;28;20047;-50
2022/09/29 07:02:46;;;;;;;3.17;0.60;;;;;;;10.52;94.70;97478.38;5097358;28;20043;-52
2022/09/29 07:05:31;;;;;;;0.88;0.40;;;;;;;10.32;96.80;97478.31;5096733;28;20043;-49
2022/09/29 07:08:16;;;;;;;0.80;0.40;;;;;;;10.51;95.54;97489.81;5095070;28;20047;-50
2022/09/29 07:11:02;;;;;;;1.27;0.95;;;;;;;10.65;94.81;97489.41;5101206;28;20147;-48
2022/09/29 07:13:46;;;;;;;1.35;0.57;;;;;;;10.99;92.84;97488.16;5100948;28;20092;-48
2022/09/29 07:16:31;;;;;;;0.93;0.47;;;;;;;11.13;91.32;97492.13;5103944;28;20036;-53
2022/09/29 07:19:16;;;;;;;1.67;0.68;;;;;;;11.86;90.67;97495.13;5092964;28;20187;-52
2022/09/29 07:22:01;;;;;;;0.77;0.50;;;;;;;11.33;91.36;97489.47;5107915;27;20039;-53
2022/09/29 07:24:47;;;;;;;1.25;0.75;;;;;;;11.93;96.25;97490.13;5096849;28;20776;-47
2022/09/29 07:27:33;;;;;;;1.48;0.68;;;;;;;11.26;91.57;97493.66;5090057;28;20040;-48
2022/09/29 07:30:18;;;;;;;1.00;0.60;;;;;;;11.44;94.85;97501.63;5094281;28;20047;-47
2022/09/29 07:33:03;;;;;;;1.00;0.90;;;;;;;11.04;92.87;97490.34;5096943;28;20043;-47
2022/09/29 07:35:51;;;;;;;1.08;0.60;;;;;;;11.28;92.21;97499.56;5097939;28;20155;-48
2022/09/29 07:38:36;;;;;;;1.20;0.70;;;;;;;11.17;91.98;97495.31;5103556;27;20095;-47
2022/09/29 07:41:22;;;;;;;1.10;0.70;;;;;;;11.33;92.41;97498.19;5099917;28;20413;-50
2022/09/29 07:44:07;;;;;;;1.60;0.70;;;;;;;11.61;91.18;97496.59;5090267;28;20475;-51
2022/09/29 07:46:52;;;;;;;1.48;0.77;;;;;;;11.49;89.88;97499.38;5102671;28;20048;-49
2022/09/29 07:49:36;;;;;;;1.65;0.88;;;;;;;11.58;90.37;97501.16;5098718;28;20119;-50
2022/09/29 07:52:21;;;;;;;1.98;0.73;;;;;;;10.92;92.58;97508.00;5095209;28;20043;-51
2022/09/29 07:55:06;;;;;;;0.95;0.60;;;;;;;11.21;92.81;97510.63;5101728;28;20048;-45
2022/09/29 07:57:50;;;;;;;1.40;0.80;;;;;;;11.52;90.04;97511.41;5093997;28;20048;-50
2022/09/29 08:00:35;;;;;;;1.98;0.65;;;;;;;11.29;91.44;97509.09;5089523;28;20122;-51
2022/09/29 08:03:19;;;;;;;2.72;0.90;;;;;;;11.40;91.01;97506.31;5101412;28;20036;-48
2022/09/29 08:06:08;;;;;;;2.35;1.00;;;;;;;11.45;91.21;97504.09;5093913;28;20096;-50
2022/09/29 08:08:53;;;;;;;1.33;0.75;;;;;;;11.57;89.10;97503.94;5101893;28;20075;-55
2022/09/29 08:11:40;;;;;;;2.50;1.00;;;;;;;11.19;90.37;97507.31;5096035;28;20066;-52
2022/09/29 08:14:24;;;;;;;2.50;0.70;;;;;;;11.24;91.94;97513.94;5097465;28;20067;-48
2022/09/29 08:17:08;;;;;;;3.95;2.65;;;;;;;11.58;89.79;97521.31;5097432;28;20535;-52
2022/09/29 08:19:53;;;;;;;1.30;0.90;;;;;;;11.31;88.82;97530.78;5097002;28;20048;-55
2022/09/29 08:22:38;;;;;;;0.95;0.60;;;;;;;10.93;92.05;97531.47;5098833;28;20153;-50
2022/09/29 08:25:24;;;;;;;0.95;0.77;;;;;;;10.94;91.10;97537.53;5088997;28;20036;-51
2022/09/29 08:28:10;;;;;;;1.45;0.82;;;;;;;10.79;92.89;97543.19;5090241;28;20032;-47
2022/09/29 08:30:54;;;;;;;2.83;1.00;;;;;;;11.41;91.56;97538.59;5093073;28;20072;-46
2022/09/29 08:33:39;;;;;;;1.50;0.95;;;;;;;11.66;89.01;97531.94;5089458;28;20402;-48
2022/09/29 08:36:25;;;;;;;2.80;1.85;;;;;;;11.74;88.61;97519.88;5092465;28;20054;-50
2022/09/29 08:39:10;;;;;;;3.75;1.40;;;;;;;11.96;87.02;97531.84;5088859;28;20036;-52
2022/09/29 08:42:04;;;;;;;1.98;0.85;;;;;;;12.11;86.44;97521.69;5088281;28;20384;-52
2022/09/29 08:44:57;;;;;;;2.80;1.38;;;;;;;12.12;85.96;97528.63;5088532;28;20127;-52
2022/09/29 08:47:49;;;;;;;2.38;1.15;;;;;;;12.52;85.06;97525.75;5094019;28;20082;-49
2022/09/29 08:50:41;;;;;;;1.63;1.13;;;;;;;12.66;83.73;97522.63;5095698;28;20130;-53
2022/09/29 08:53:28;;;;;;;1.85;1.08;;;;;;;12.92;82.57;97523.69;5087852;28;20051;-60
2022/09/29 08:56:16;;;;;;;2.00;1.30;;;;;;;12.87;82.46;97525.94;5073257;28;20440;-56
2022/09/29 08:59:01;;;;;;;2.47;1.23;;;;;;;12.34;81.43;97537.06;5087009;28;20173;-53
2022/09/29 09:02:17;;;;;;;3.15;1.30;;;;;;;12.35;83.27;97538.72;5088074;28;20047;-52
2022/09/29 09:05:08;;;;;;;2.10;1.08;;;;;;;12.62;82.74;97546.69;5089617;28;20118;-62
2022/09/29 09:08:41;;;;;;;1.73;1.00;;;;;;;13.21;79.56;97548.91;5093218;28;20122;-53
2022/09/29 09:11:59;;;;;;;5.03;0.95;;;;;;;13.86;75.84;97544.25;5092218;28;20066;-52
2022/09/29 09:14:59;;;;;;;1.30;0.88;;;;;;;13.66;75.13;97544.47;5092286;28;20433;-51
2022/09/29 09:18:06;;;;;;;1.90;1.15;;;;;;;13.29;77.88;97548.13;5088478;28;20086;-53
2022/09/29 09:21:07;;;;;;;2.25;1.00;;;;;;;13.22;75.92;97550.53;5087618;28;20082;-52
2022/09/29 09:24:12;;;;;;;4.13;1.33;;;;;;;13.07;76.49;97545.03;5086593;28;20041;-59
2022/09/29 09:26:58;;;;;;;1.88;0.95;;;;;;;13.10;79.15;97539.44;5095394;28;20047;-52
2022/09/29 09:29:44;;;;;;;2.47;1.05;;;;;;;12.71;75.82;97545.84;5087632;28;20812;-53
2022/09/29 09:32:33;;;;;;;2.10;1.10;;;;;;;12.94;75.32;97548.03;5090482;28;20064;-53
2022/09/29 09:35:20;;;;;;;3.10;1.15;;;;;;;12.71;75.81;97555.50;5086995;28;20117;-54
2022/09/29 09:38:16;;;;;;;1.88;1.05;;;;;;;12.66;74.48;97551.53;5098136;28;20082;-52
2022/09/29 09:41:01;;;;;;;1.23;1.00;;;;;;;12.37;76.47;97563.03;5092534;28;20076;-52
2022/09/29 09:43:51;;;;;;;2.10;1.20;;;;;;;12.34;78.04;97562.50;5109988;27;20129;-53
2022/09/29 09:46:48;;;;;;;1.80;0.90;;;;;;;12.49;79.29;97563.66;5106943;28;20120;-53
2022/09/29 09:49:40;;;;;;;2.88;0.80;;;;;;;12.84;79.51;97569.13;5091199;28;20186;-50
2022/09/29 09:52:45;;;;;;;1.83;1.13;;;;;;;12.62;81.16;97562.47;5102192;28;20032;-50
2022/09/29 09:55:35;;;;;;;2.75;0.93;;;;;;;12.77;79.30;97562.78;5109575;28;20040;-52
2022/09/29 09:58:46;;;;;;;1.77;0.90;;;;;;;12.48;82.30;97563.81;5104573;28;20059;-51
2022/09/29 10:01:31;;;;;;;1.75;1.00;;;;;;;12.75;81.58;97568.19;5107379;28;20145;-51
2022/09/29 10:04:16;;;;;;;1.70;1.00;;;;;;;12.46;81.44;97571.84;5107632;28;20047;-49
2022/09/29 10:07:01;;;;;;;1.42;1.00;;;;;;;12.55;83.46;97562.25;5113662;28;20047;-50
2022/09/29 10:09:46;;;;;;;2.28;1.10;;;;;;;12.73;82.76;97549.13;5116427;28;20039;-46
2022/09/29 10:12:31;;;;;;;2.10;1.00;;;;;;;12.66;84.62;97562.06;5102892;28;20119;-49
2022/09/29 10:15:27;;;;;;;3.60;1.50;;;;;;;13.51;81.16;97552.09;5097710;28;20043;-47
2022/09/29 10:18:16;;;;;;;6.85;1.80;;;;;;;14.31;80.47;97557.31;5099217;28;20111;-52
2022/09/29 10:21:01;;;;;;;2.13;1.00;;;;;;;14.74;74.64;97551.97;5094459;28;20115;-50
2022/09/29 10:23:50;;;;;;;1.70;1.00;;;;;;;15.34;73.44;97543.16;5099726;28;20123;-53
2022/09/29 10:26:38;;;;;;;1.35;1.02;;;;;;;14.90;71.32;97547.78;5095000;28;20036;-50
2022/09/29 10:29:37;;;;;;;3.13;1.38;;;;;;;15.07;76.21;97545.13;5090292;28;20173;-48
2022/09/29 10:32:35;;;;;;;2.05;1.25;;;;;;;16.26;65.82;97551.72;5091738;28;20044;-49
2022/09/29 10:35:26;;;;;;;4.53;1.15;;;;;;;15.26;69.27;97559.81;5098213;28;20112;-49
2022/09/29 10:38:16;;;;;;;2.67;1.20;;;;;;;15.39;67.95;97554.84;5099528;28;20398;-50
2022/09/29 10:41:04;;;;;;;1.77;1.10;;;;;;;15.02;67.59;97564.09;5093792;28;20046;-50
2022/09/29 10:43:51;;;;;;;1.60;1.08;;;;;;;15.61;68.52;97564.91;5107309;28;20047;-50
2022/09/29 10:46:44;;;;;;;1.83;1.20;;;;;;;15.97;65.42;97555.75;5092955;28;20414;-53
2022/09/29 10:49:29;;;;;;;1.88;1.20;;;;;;;16.40;67.33;97565.22;5096419;28;20039;-54
2022/09/29 10:52:26;;;;;;;3.60;1.40;;;;;;;16.31;66.60;97567.88;5106263;28;20101;-53
2022/09/29 10:55:24;;;;;;;4.25;1.20;;;;;;;17.01;65.27;97561.88;5095448;28;20043;-51
2022/09/29 10:58:30;;;;;;;5.03;1.27;;;;;;;17.60;59.04;97563.09;5105423;27;20124;-49
2022/09/29 11:01:16;;;;;;;5.68;1.15;;;;;;;16.79;64.22;97563.50;5103882;28;20069;-51
2022/09/29 11:04:17;;;;;;;2.50;1.20;;;;;;;17.60;64.92;97556.97;5096341;28;20459;-49
2022/09/29 11:07:09;;;;;;;2.80;1.10;;;;;;;17.19;57.25;97558.13;5098044;28;20499;-49
2022/09/29 11:09:54;;;;;;;2.40;0.73;;;;;;;16.93;57.75;97560.13;5103171;28;20047;-53
2022/09/29 11:12:39;;;;;;;1.60;0.80;;;;;;;17.22;55.29;97561.25;5101505;28;20403;-52
2022/09/29 11:15:37;;;;;;;2.03;1.08;;;;;;;18.00;54.48;97564.69;5104866;28;20451;-54
2022/09/29 11:18:32;;;;;;;2.30;1.20;;;;;;;19.07;55.84;97561.66;5090584;28;20391;-55
2022/09/29 11:21:22;;;;;;;1.90;0.80;;;;;;;19.86;52.67;97554.72;5100350;28;20035;-49
2022/09/29 11:24:29;;;;;;;1.27;0.85;;;;;;;19.01;49.75;97556.28;5100316;28;20487;-54
2022/09/29 11:27:22;;;;;;;2.28;1.00;;;;;;;19.01;53.08;97558.94;5094025;28;20059;-56
2022/09/29 11:30:14;;;;;;;2.05;0.80;;;;;;;18.80;59.69;97569.31;5095027;28;20044;-56
2022/09/29 11:33:06;;;;;;;2.28;0.57;;;;;;;18.20;49.00;97570.28;5096005;27;20352;-56
2022/09/29 11:36:09;;;;;;;1.92;0.68;;;;;;;17.48;53.91;97565.34;5100153;28;20089;-53
2022/09/29 11:39:19;;;;;;;1.88;0.90;;;;;;;18.18;52.82;97561.66;5098126;28;20510;-52
2022/09/29 11:42:24;;;;;;;1.20;0.70;;;;;;;18.09;51.11;97552.97;5102435;28;20069;-52
2022/09/29 11:45:16;;;;;;;1.05;0.60;;;;;;;17.64;53.08;97546.84;5096066;28;20075;-49
2022/09/29 11:48:28;;;;;;;1.98;0.80;;;;;;;17.46;51.45;97558.59;5099382;28;20071;-50
2022/09/29 11:51:36;;;;;;;1.05;0.70;;;;;;;16.93;53.80;97564.56;5092467;28;20046;-50
2022/09/29 11:54:46;;;;;;;1.40;0.60;;;;;;;17.77;52.05;97548.88;5092823;28;20066;-53
2022/09/29 11:57:45;;;;;;;1.10;0.60;;;;;;;18.86;46.61;97553.66;5088787;28;20434;-50
2022/09/29 12:00:48;;;;;;;1.67;0.73;;;;;;;18.44;46.60;97551.59;5097018;28;20048;-56
2022/09/29 12:03:42;;;;;;;1.58;0.93;;;;;;;18.53;48.25;97534.56;5112499;27;20040;-52
2022/09/29 12:06:35;;;;;;;1.52;0.60;;;;;;;18.62;48.62;97540.59;5086960;28;20463;-53
2022/09/29 12:10:05;;;;;;;2.35;0.80;;;;;;;19.90;47.36;97540.84;5093113;28;20131;-52
2022/09/29 12:13:01;;;;;;;2.00;0.52;;;;;;;20.75;45.22;97544.28;5074731;28;20414;-51
2022/09/29 12:15:56;;;;;;;3.67;1.10;;;;;;;20.33;43.55;97541.69;5059427;28;20049;-53
2022/09/29 12:18:55;;;;;;;1.55;0.70;;;;;;;19.16;45.02;97553.59;5061982;28;20036;-57
2022/09/29 12:21:44;;;;;;;2.63;1.40;;;;;;;19.01;44.98;97558.94;5043624;28;20464;-52
2022/09/29 12:24:57;;;;;;;3.20;1.50;;;;;;;19.23;45.99;97549.16;5062038;28;20033;-56
2022/09/29 12:27:45;;;;;;;0.73;0.60;;;;;;;20.12;42.84;97540.81;5059129;28;20123;-55
2022/09/29 12:30:53;;;;;;;2.17;0.50;;;;;;;20.69;42.53;97537.13;5044470;28;20082;-58
2022/09/29 12:33:47;;;;;;;1.48;0.80;;;;;;;20.61;43.02;97545.28;5076091;28;20139;-51
2022/09/29 12:36:44;;;;;;;1.00;0.50;;;;;;;20.96;45.15;97545.16;5062917;28;20052;-48
2022/09/29 12:39:59;;;;;;;2.40;0.52;;;;;;;19.79;43.96;97542.22;5067966;28;20044;-53
2022/09/29 12:43:01;;;;;;;1.02;0.50;;;;;;;19.66;44.37;97544.78;5057545;28;20479;-47
2022/09/29 12:46:05;;;;;;;1.00;0.40;;;;;;;19.62;46.05;97544.34;5072197;28;20491;-53
2022/09/29 12:48:56;;;;;;;0.65;0.32;;;;;;;20.23;45.76;97552.69;5098470;28;20135;-52
2022/09/29 12:51:43;;;;;;;2.20;0.30;;;;;;;20.14;45.10;97540.59;5088813;28;20124;-54
2022/09/29 12:54:35;;;;;;;1.95;0.40;;;;;;;20.25;43.76;97544.53;5096855;28;20451;-51
2022/09/29 12:57:26;;;;;;;0.95;0.30;;;;;;;20.22;45.77;97548.38;5092973;28;20062;-53
2022/09/29 13:00:12;;;;;;;1.02;0.47;;;;;;;19.95;46.10;97540.25;5089648;28;20748;-55
2022/09/29 13:03:21;;;;;;;2.40;0.60;;;;;;;19.56;46.71;97537.97;5096859;28;20495;-50
2022/09/29 13:06:27;;;;;;;2.15;0.60;;;;;;;20.36;45.51;97540.47;5097660;28;20043;-52
2022/09/29 13:09:41;;;;;;;1.67;0.40;;;;;;;22.28;42.07;97544.63;5102758;28;20044;-53
2022/09/29 13:12:44;;;;;;;1.23;0.57;;;;;;;22.38;39.70;97550.34;5093732;28;20138;-51
2022/09/29 13:15:50;;;;;;;1.33;0.50;;;;;;;22.31;41.47;97540.72;5106096;28;20447;-49
2022/09/29 13:18:56;;;;;;;3.22;0.60;;;;;;;22.73;41.12;97535.84;5104104;28;20046;-49
2022/09/29 13:21:59;;;;;;;0.93;0.50;;;;;;;22.71;39.94;97537.06;5090484;28;20143;-52
2022/09/29 13:25:10;;;;;;;1.13;0.50;;;;;;;22.56;39.13;97537.31;5098346;28;20730;-49
2022/09/29 13:27:56;;;;;;;0.82;0.50;;;;;;;22.86;39.06;97531.44;5093914;28;20122;-49
2022/09/29 13:30:40;;;;;;;0.88;0.50;;;;;;;23.67;36.40;97530.00;5078632;28;20051;-55